sensor_id;sensor_type;location;lat;lon;timestamp;pressure;altitude;pressure_sealevel;temperature;humidity
72359;BME280;60317;48.880;-0.862;2023-04-10T00:01:39;100510.56;;;18.27;42.57
72359;BME280;60317;48.880;-0.862;2023-04-10T00:04:06;100502.69;;;18.25;42.70
72359;BME280;60317;48.880;-0.862;2023-04-10T00:06:32;100502.78;;;18.24;42.53
72359;BME280;60317;48.880;-0.862;2023-04-10T00:08:59;100502.91;;;18.22;42.68
72359;BME280;60317;48.880;-0.862;2023-04-10T00:11:26;100487.09;;;18.19;42.54
72359;BME280;60317;48.880;-0.862;2023-04-10T00:13:53;100495.59;;;18.24;42.48
72359;BME280;60317;48.880;-0.862;2023-04-10T00:16:21;100492.09;;;18.24;42.62
72359;BME280;60317;48.880;-0.862;2023-04-10T00:18:47;100491.09;;;18.25;42.80
72359;BME280;60317;48.880;-0.862;2023-04-10T00:21:14;100495.59;;;18.24;42.59
72359;BME280;60317;48.880;-0.862;2023-04-10T00:23:40;100489.41;;;18.24;42.61
72359;BME280;60317;48.880;-0.862;2023-04-10T00:26:07;100484.19;;;18.22;42.88
72359;BME280;60317;48.880;-0.862;2023-04-10T00:28:34;100486.72;;;18.24;42.79
72359;BME280;60317;48.880;-0.862;2023-04-10T00:31:00;100484.91;;;18.24;42.75
72359;BME280;60317;48.880;-0.862;2023-04-10T00:33:28;100489.41;;;18.24;42.69
72359;BME280;60317;48.880;-0.862;2023-04-10T00:35:55;100478.72;;;18.24;42.64
72359;BME280;60317;48.880;-0.862;2023-04-10T00:38:21;100482.38;;;18.23;42.61
72359;BME280;60317;48.880;-0.862;2023-04-10T00:40:48;100480.53;;;18.23;42.83
72359;BME280;60317;48.880;-0.862;2023-04-10T00:43:15;100472.63;;;18.22;42.81
72359;BME280;60317;48.880;-0.862;2023-04-10T00:45:42;100472.50;;;18.23;42.71
72359;BME280;60317;48.880;-0.862;2023-04-10T00:48:08;100475.03;;;18.25;42.70
72359;BME280;60317;48.880;-0.862;2023-04-10T00:50:36;100462.66;;;18.24;42.62
72359;BME280;60317;48.880;-0.862;2023-04-10T00:53:03;100465.31;;;18.24;42.72
72359;BME280;60317;48.880;-0.862;2023-04-10T00:55:29;100460.13;;;18.22;42.65
72359;BME280;60317;48.880;-0.862;2023-04-10T00:57:57;100458.28;;;18.23;42.73
72359;BME280;60317;48.880;-0.862;2023-04-10T01:00:23;100447.59;;;18.23;42.66
72359;BME280;60317;48.880;-0.862;2023-04-10T01:02:50;100445.88;;;18.22;42.63
72359;BME280;60317;48.880;-0.862;2023-04-10T01:05:16;100441.38;;;18.22;42.80
72359;BME280;60317;48.880;-0.862;2023-04-10T01:07:53;100432.50;;;18.22;42.54
72359;BME280;60317;48.880;-0.862;2023-04-10T01:10:26;100433.22;;;18.24;42.61
72359;BME280;60317;48.880;-0.862;2023-04-10T01:12:58;100427.16;;;18.22;42.54
72359;BME280;60317;48.880;-0.862;2023-04-10T01:15:28;100416.47;;;18.22;42.68
72359;BME280;60317;48.880;-0.862;2023-04-10T01:18:02;100417.41;;;18.21;42.63
72359;BME280;60317;48.880;-0.862;2023-04-10T01:20:30;100411.09;;;18.22;42.57
72359;BME280;60317;48.880;-0.862;2023-04-10T01:23:11;100414.63;;;18.22;42.56
72359;BME280;60317;48.880;-0.862;2023-04-10T01:25:44;100402.22;;;18.21;42.52
72359;BME280;60317;48.880;-0.862;2023-04-10T01:28:23;100394.19;;;18.21;42.69
72359;BME280;60317;48.880;-0.862;2023-04-10T01:30:58;100391.41;;;18.23;42.54
72359;BME280;60317;48.880;-0.862;2023-04-10T01:33:32;100400.41;;;18.22;42.66
72359;BME280;60317;48.880;-0.862;2023-04-10T01:36:01;100387.03;;;18.22;42.83
72359;BME280;60317;48.880;-0.862;2023-04-10T01:38:30;100380.81;;;18.21;42.42
72359;BME280;60317;48.880;-0.862;2023-04-10T01:40:57;100381.78;;;18.20;42.55
72359;BME280;60317;48.880;-0.862;2023-04-10T01:43:25;100389.72;;;18.22;42.86
72359;BME280;60317;48.880;-0.862;2023-04-10T01:45:53;100385.06;;;18.24;42.41
72359;BME280;60317;48.880;-0.862;2023-04-10T01:48:22;100376.34;;;18.22;42.52
72359;BME280;60317;48.880;-0.862;2023-04-10T01:50:49;100372.78;;;18.21;42.63
72359;BME280;60317;48.880;-0.862;2023-04-10T01:53:16;100363.06;;;18.20;42.53
72359;BME280;60317;48.880;-0.862;2023-04-10T01:55:43;100362.97;;;18.22;42.42
72359;BME280;60317;48.880;-0.862;2023-04-10T01:58:10;100361.00;;;18.24;42.33
72359;BME280;60317;48.880;-0.862;2023-04-10T02:00:37;100360.16;;;18.23;42.58
72359;BME280;60317;48.880;-0.862;2023-04-10T02:03:04;100354.94;;;18.22;42.42
72359;BME280;60317;48.880;-0.862;2023-04-10T02:05:44;100353.94;;;18.23;42.45
72359;BME280;60317;48.880;-0.862;2023-04-10T02:08:14;100338.00;;;18.21;42.40
72359;BME280;60317;48.880;-0.862;2023-04-10T02:10:49;100338.00;;;18.21;42.39
72359;BME280;60317;48.880;-0.862;2023-04-10T02:13:18;100329.28;;;18.19;42.29
72359;BME280;60317;48.880;-0.862;2023-04-10T02:15:46;100332.66;;;18.21;42.32
72359;BME280;60317;48.880;-0.862;2023-04-10T02:18:16;100333.53;;;18.22;42.47
72359;BME280;60317;48.880;-0.862;2023-04-10T02:20:45;100337.16;;;18.21;42.50
72359;BME280;60317;48.880;-0.862;2023-04-10T02:23:14;100340.69;;;18.21;42.46
72359;BME280;60317;48.880;-0.862;2023-04-10T02:25:41;100335.47;;;18.20;42.35
72359;BME280;60317;48.880;-0.862;2023-04-10T02:28:07;100343.34;;;18.21;42.26
72359;BME280;60317;48.880;-0.862;2023-04-10T02:30:34;100339.84;;;18.21;42.28
72359;BME280;60317;48.880;-0.862;2023-04-10T02:33:00;100337.91;;;18.23;42.34
72359;BME280;60317;48.880;-0.862;2023-04-10T02:35:27;100344.22;;;18.22;42.18
72359;BME280;60317;48.880;-0.862;2023-04-10T02:37:55;100344.94;;;18.24;42.33
72359;BME280;60317;48.880;-0.862;2023-04-10T02:40:22;100344.09;;;18.23;42.25
72359;BME280;60317;48.880;-0.862;2023-04-10T02:42:48;100352.13;;;18.23;42.15
72359;BME280;60317;48.880;-0.862;2023-04-10T02:45:15;100344.22;;;18.22;42.43
72359;BME280;60317;48.880;-0.862;2023-04-10T02:47:41;100353.09;;;18.22;42.13
72359;BME280;60317;48.880;-0.862;2023-04-10T02:50:09;100358.31;;;18.24;42.08
72359;BME280;60317;48.880;-0.862;2023-04-10T02:52:35;100360.16;;;18.23;42.17
72359;BME280;60317;48.880;-0.862;2023-04-10T02:55:03;100353.94;;;18.23;41.99
72359;BME280;60317;48.880;-0.862;2023-04-10T02:57:30;100351.38;;;18.21;42.28
72359;BME280;60317;48.880;-0.862;2023-04-10T02:59:56;100350.44;;;18.22;42.13
72359;BME280;60317;48.880;-0.862;2023-04-10T03:02:23;100356.72;;;18.21;42.32
72359;BME280;60317;48.880;-0.862;2023-04-10T03:04:50;100339.84;;;18.21;42.17
72359;BME280;60317;48.880;-0.862;2023-04-10T03:07:16;100327.31;;;18.21;42.27
72359;BME280;60317;48.880;-0.862;2023-04-10T03:09:43;100312.13;;;18.22;42.27
72359;BME280;60317;48.880;-0.862;2023-04-10T03:12:11;100320.16;;;18.22;42.06
72359;BME280;60317;48.880;-0.862;2023-04-10T03:14:37;100319.28;;;18.21;41.96
72359;BME280;60317;48.880;-0.862;2023-04-10T03:17:03;100311.25;;;18.21;42.01
72359;BME280;60317;48.880;-0.862;2023-04-10T03:19:30;100305.91;;;18.21;42.00
72359;BME280;60317;48.880;-0.862;2023-04-10T03:21:56;100305.91;;;18.21;42.26
72359;BME280;60317;48.880;-0.862;2023-04-10T03:24:23;100293.41;;;18.22;42.19
72359;BME280;60317;48.880;-0.862;2023-04-10T03:26:49;100285.63;;;18.19;42.07
72359;BME280;60317;48.880;-0.862;2023-04-10T03:29:17;100293.41;;;18.22;42.02
72359;BME280;60317;48.880;-0.862;2023-04-10T03:31:44;100302.28;;;18.22;42.32
72359;BME280;60317;48.880;-0.862;2023-04-10T03:34:10;100287.06;;;18.23;41.98
72359;BME280;60317;48.880;-0.862;2023-04-10T03:36:37;100277.34;;;18.22;42.08
72359;BME280;60317;48.880;-0.862;2023-04-10T03:39:03;100277.47;;;18.20;42.09
72359;BME280;60317;48.880;-0.862;2023-04-10T03:41:30;100281.97;;;18.20;42.09
72359;BME280;60317;48.880;-0.862;2023-04-10T03:43:56;100287.31;;;18.20;42.27
72359;BME280;60317;48.880;-0.862;2023-04-10T03:46:24;100285.38;;;18.22;42.12
72359;BME280;60317;48.880;-0.862;2023-04-10T03:48:50;100288.28;;;18.19;42.06
72359;BME280;60317;48.880;-0.862;2023-04-10T03:51:17;100290.13;;;18.18;42.17
72359;BME280;60317;48.880;-0.862;2023-04-10T03:53:43;100300.69;;;18.20;42.16
72359;BME280;60317;48.880;-0.862;2023-04-10T03:56:10;100306.03;;;18.20;42.12
72359;BME280;60317;48.880;-0.862;2023-04-10T03:58:36;100311.53;;;18.18;42.33
72359;BME280;60317;48.880;-0.862;2023-04-10T04:01:04;100333.78;;;18.19;42.33
72359;BME280;60317;48.880;-0.862;2023-04-10T04:03:32;100338.13;;;18.20;42.09
72359;BME280;60317;48.880;-0.862;2023-04-10T04:05:58;100338.13;;;18.20;42.19
72359;BME280;60317;48.880;-0.862;2023-04-10T04:08:25;100334.47;;;18.21;42.10
72359;BME280;60317;48.880;-0.862;2023-04-10T04:10:51;100343.25;;;18.23;42.08
72359;BME280;60317;48.880;-0.862;2023-04-10T04:13:18;100339.97;;;18.19;42.30
72359;BME280;60317;48.880;-0.862;2023-04-10T04:15:44;100331.94;;;18.19;42.08
72359;BME280;60317;48.880;-0.862;2023-04-10T04:18:11;100338.38;;;18.17;42.26
72359;BME280;60317;48.880;-0.862;2023-04-10T04:20:39;100329.13;;;18.21;42.14
72359;BME280;60317;48.880;-0.862;2023-04-10T04:23:05;100334.63;;;18.19;42.24
72359;BME280;60317;48.880;-0.862;2023-04-10T04:25:32;100332.03;;;18.18;42.36
72359;BME280;60317;48.880;-0.862;2023-04-10T04:27:58;100329.28;;;18.19;42.15
72359;BME280;60317;48.880;-0.862;2023-04-10T04:30:25;100327.44;;;18.20;42.32
72359;BME280;60317;48.880;-0.862;2023-04-10T04:32:51;100319.41;;;18.20;42.23
72359;BME280;60317;48.880;-0.862;2023-04-10T04:35:18;100308.72;;;18.20;42.46
72359;BME280;60317;48.880;-0.862;2023-04-10T04:37:46;100314.91;;;18.20;42.33
72359;BME280;60317;48.880;-0.862;2023-04-10T04:40:12;100321.09;;;18.21;42.32
72359;BME280;60317;48.880;-0.862;2023-04-10T04:42:39;100315.88;;;18.19;42.17
72359;BME280;60317;48.880;-0.862;2023-04-10T04:45:07;100316.88;;;18.18;42.26
72359;BME280;60317;48.880;-0.862;2023-04-10T04:47:33;100314.19;;;18.18;42.47
72359;BME280;60317;48.880;-0.862;2023-04-10T04:50:00;100310.41;;;18.21;42.46
72359;BME280;60317;48.880;-0.862;2023-04-10T04:52:26;100314.19;;;18.18;42.46
72359;BME280;60317;48.880;-0.862;2023-04-10T04:54:54;100316.00;;;18.18;42.48
72359;BME280;60317;48.880;-0.862;2023-04-10T04:57:21;100307.13;;;18.17;42.54
72359;BME280;60317;48.880;-0.862;2023-04-10T04:59:47;100305.44;;;18.16;42.36
72359;BME280;60317;48.880;-0.862;2023-04-10T05:02:13;100310.53;;;18.19;42.37
72359;BME280;60317;48.880;-0.862;2023-04-10T05:04:40;100308.72;;;18.20;42.48
72359;BME280;60317;48.880;-0.862;2023-04-10T05:07:07;100306.03;;;18.20;42.60
72359;BME280;60317;48.880;-0.862;2023-04-10T05:09:33;100316.00;;;18.18;42.54
72359;BME280;60317;48.880;-0.862;2023-04-10T05:12:01;100317.97;;;18.16;42.45
72359;BME280;60317;48.880;-0.862;2023-04-10T05:14:27;100324.03;;;18.18;42.54
72359;BME280;60317;48.880;-0.862;2023-04-10T05:16:54;100320.50;;;18.17;42.35
72359;BME280;60317;48.880;-0.862;2023-04-10T05:19:20;100328.41;;;18.19;42.49
72359;BME280;60317;48.880;-0.862;2023-04-10T05:21:47;100330.25;;;18.18;42.67
72359;BME280;60317;48.880;-0.862;2023-04-10T05:24:13;100317.81;;;18.17;42.65
72359;BME280;60317;48.880;-0.862;2023-04-10T05:26:40;100308.84;;;18.18;42.60
72359;BME280;60317;48.880;-0.862;2023-04-10T05:29:07;100304.59;;;18.16;42.53
72359;BME280;60317;48.880;-0.862;2023-04-10T05:31:34;100305.44;;;18.16;42.83
72359;BME280;60317;48.880;-0.862;2023-04-10T05:34:00;100305.44;;;18.16;42.67
72359;BME280;60317;48.880;-0.862;2023-04-10T05:36:27;100315.28;;;18.16;42.41
72359;BME280;60317;48.880;-0.862;2023-04-10T05:38:53;100313.47;;;18.16;42.75
72359;BME280;60317;48.880;-0.862;2023-04-10T05:41:20;100305.28;;;18.18;42.62
72359;BME280;60317;48.880;-0.862;2023-04-10T05:43:47;100307.25;;;18.16;42.66
72359;BME280;60317;48.880;-0.862;2023-04-10T05:46:14;100304.69;;;18.14;42.81
72359;BME280;60317;48.880;-0.862;2023-04-10T05:48:41;100317.13;;;18.15;42.78
72359;BME280;60317;48.880;-0.862;2023-04-10T05:51:08;100309.94;;;18.16;42.89
72359;BME280;60317;48.880;-0.862;2023-04-10T05:53:34;100310.78;;;18.16;42.90
72359;BME280;60317;48.880;-0.862;2023-04-10T05:56:00;100323.31;;;18.16;42.80
72359;BME280;60317;48.880;-0.862;2023-04-10T05:58:27;100325.00;;;18.17;42.72
72359;BME280;60317;48.880;-0.862;2023-04-10T06:00:54;100316.88;;;18.18;42.83
72359;BME280;60317;48.880;-0.862;2023-04-10T06:03:22;100311.63;;;18.17;42.94
72359;BME280;60317;48.880;-0.862;2023-04-10T06:05:48;100308.22;;;18.15;42.86
72359;BME280;60317;48.880;-0.862;2023-04-10T06:08:15;100310.78;;;18.16;42.99
72359;BME280;60317;48.880;-0.862;2023-04-10T06:10:42;100308.94;;;18.17;42.84
72359;BME280;60317;48.880;-0.862;2023-04-10T06:13:08;100307.25;;;18.16;42.99
72359;BME280;60317;48.880;-0.862;2023-04-10T06:15:36;100304.59;;;18.16;43.13
72359;BME280;60317;48.880;-0.862;2023-04-10T06:18:03;100301.78;;;18.17;43.00
72359;BME280;60317;48.880;-0.862;2023-04-10T06:20:31;100309.94;;;18.16;43.03
72359;BME280;60317;48.880;-0.862;2023-04-10T06:22:58;100315.28;;;18.16;43.04
72359;BME280;60317;48.880;-0.862;2023-04-10T06:25:25;100309.09;;;18.15;43.19
72359;BME280;60317;48.880;-0.862;2023-04-10T06:27:51;100315.28;;;18.16;43.08
72359;BME280;60317;48.880;-0.862;2023-04-10T06:30:18;100312.47;;;18.17;43.19
72359;BME280;60317;48.880;-0.862;2023-04-10T06:32:44;100310.88;;;18.15;43.29
72359;BME280;60317;48.880;-0.862;2023-04-10T06:35:11;100302.75;;;18.16;43.18
72359;BME280;60317;48.880;-0.862;2023-04-10T06:37:39;100298.38;;;18.15;43.15
72359;BME280;60317;48.880;-0.862;2023-04-10T06:40:06;100310.88;;;18.15;43.22
72359;BME280;60317;48.880;-0.862;2023-04-10T06:42:34;100307.38;;;18.14;43.41
72359;BME280;60317;48.880;-0.862;2023-04-10T06:45:02;100309.09;;;18.15;43.39
72359;BME280;60317;48.880;-0.862;2023-04-10T06:47:29;100314.44;;;18.15;43.31
72359;BME280;60317;48.880;-0.862;2023-04-10T06:49:56;100307.25;;;18.16;43.39
72359;BME280;60317;48.880;-0.862;2023-04-10T06:52:22;100298.25;;;18.17;43.30
72359;BME280;60317;48.880;-0.862;2023-04-10T06:54:50;100300.94;;;18.17;43.47
72359;BME280;60317;48.880;-0.862;2023-04-10T06:57:16;100302.75;;;18.16;43.59
72359;BME280;60317;48.880;-0.862;2023-04-10T06:59:43;100302.88;;;18.15;43.60
72359;BME280;60317;48.880;-0.862;2023-04-10T07:02:10;100309.09;;;18.15;43.60
72359;BME280;60317;48.880;-0.862;2023-04-10T07:04:36;100290.38;;;18.15;43.60
72359;BME280;60317;48.880;-0.862;2023-04-10T07:07:03;100280.38;;;18.17;43.65
72359;BME280;60317;48.880;-0.862;2023-04-10T07:09:29;100279.53;;;18.17;43.61
72359;BME280;60317;48.880;-0.862;2023-04-10T07:11:57;100272.50;;;18.16;43.64
72359;BME280;60317;48.880;-0.862;2023-04-10T07:14:24;100278.53;;;18.18;44.01
72359;BME280;60317;48.880;-0.862;2023-04-10T07:16:50;100269.06;;;18.13;43.87
72359;BME280;60317;48.880;-0.862;2023-04-10T07:19:17;100269.91;;;18.14;43.95
72359;BME280;60317;48.880;-0.862;2023-04-10T07:21:43;100259.13;;;18.16;43.89
72359;BME280;60317;48.880;-0.862;2023-04-10T07:24:10;100259.97;;;18.16;43.91
72359;BME280;60317;48.880;-0.862;2023-04-10T07:26:36;100252.78;;;18.17;43.93
72359;BME280;60317;48.880;-0.862;2023-04-10T07:29:04;100257.53;;;18.13;44.20
72359;BME280;60317;48.880;-0.862;2023-04-10T07:31:31;100249.38;;;18.15;43.96
72359;BME280;60317;48.880;-0.862;2023-04-10T07:33:57;100245.75;;;18.16;44.02
72359;BME280;60317;48.880;-0.862;2023-04-10T07:36:24;100246.59;;;18.16;44.06
72359;BME280;60317;48.880;-0.862;2023-04-10T07:38:50;100245.00;;;18.13;44.13
72359;BME280;60317;48.880;-0.862;2023-04-10T07:41:17;100247.56;;;18.15;44.26
72359;BME280;60317;48.880;-0.862;2023-04-10T07:43:43;100248.28;;;18.17;44.26
72359;BME280;60317;48.880;-0.862;2023-04-10T07:46:11;100251.09;;;18.16;44.28
72359;BME280;60317;48.880;-0.862;2023-04-10T07:48:38;100258.03;;;18.18;44.33
72359;BME280;60317;48.880;-0.862;2023-04-10T07:51:04;100259.81;;;18.18;44.52
72359;BME280;60317;48.880;-0.862;2023-04-10T07:53:31;100260.06;;;18.15;44.63
72359;BME280;60317;48.880;-0.862;2023-04-10T07:55:57;100255.69;;;18.13;44.51
72359;BME280;60317;48.880;-0.862;2023-04-10T07:58:24;100260.06;;;18.15;44.79
72359;BME280;60317;48.880;-0.862;2023-04-10T08:00:50;100257.28;;;18.16;44.49
72359;BME280;60317;48.880;-0.862;2023-04-10T08:03:18;100258.38;;;18.13;44.59
72359;BME280;60317;48.880;-0.862;2023-04-10T08:05:45;100270.53;;;18.18;44.98
72359;BME280;60317;48.880;-0.862;2023-04-10T08:08:13;100274.19;;;18.17;45.11
72359;BME280;60317;48.880;-0.862;2023-04-10T08:10:39;100285.88;;;18.16;44.98
72359;BME280;60317;48.880;-0.862;2023-04-10T08:13:06;100293.03;;;18.15;44.99
72359;BME280;60317;48.880;-0.862;2023-04-10T08:15:32;100293.88;;;18.16;45.02
72359;BME280;60317;48.880;-0.862;2023-04-10T08:17:59;100299.25;;;18.16;44.77
72359;BME280;60317;48.880;-0.862;2023-04-10T08:20:27;100298.38;;;18.15;44.98
72359;BME280;60317;48.880;-0.862;2023-04-10T08:22:54;100294.84;;;18.15;45.00
72359;BME280;60317;48.880;-0.862;2023-04-10T08:25:24;100299.94;;;18.18;44.91
72359;BME280;60317;48.880;-0.862;2023-04-10T08:27:51;100281.22;;;18.18;45.31
72359;BME280;60317;48.880;-0.862;2023-04-10T08:30:17;100284.88;;;18.17;45.13
72359;BME280;60317;48.880;-0.862;2023-04-10T08:32:44;100280.50;;;18.16;45.21
72359;BME280;60317;48.880;-0.862;2023-04-10T08:35:10;100277.84;;;18.16;45.29
72359;BME280;60317;48.880;-0.862;2023-04-10T08:37:38;100258.28;;;18.15;45.23
72359;BME280;60317;48.880;-0.862;2023-04-10T08:40:05;100262.63;;;18.16;45.28
72359;BME280;60317;48.880;-0.862;2023-04-10T08:42:32;100260.81;;;18.17;45.66
72359;BME280;60317;48.880;-0.862;2023-04-10T08:45:01;100268.84;;;18.17;45.57
72359;BME280;60317;48.880;-0.862;2023-04-10T08:47:28;100268.22;;;18.13;45.72
72359;BME280;60317;48.880;-0.862;2023-04-10T08:50:05;100271.63;;;18.15;45.78
72359;BME280;60317;48.880;-0.862;2023-04-10T08:52:33;100264.56;;;18.14;45.73
72359;BME280;60317;48.880;-0.862;2023-04-10T08:55:07;100277.00;;;18.15;45.78
72359;BME280;60317;48.880;-0.862;2023-04-10T08:57:36;100275.03;;;18.17;45.66
72359;BME280;60317;48.880;-0.862;2023-04-10T09:00:07;100268.97;;;18.15;45.75
72359;BME280;60317;48.880;-0.862;2023-04-10T09:02:48;100262.63;;;18.16;45.81
72359;BME280;60317;48.880;-0.862;2023-04-10T09:05:15;100267.00;;;18.17;45.77
72359;BME280;60317;48.880;-0.862;2023-04-10T09:07:41;100262.63;;;18.16;45.94
72359;BME280;60317;48.880;-0.862;2023-04-10T09:10:09;100258.28;;;18.15;46.02
72359;BME280;60317;48.880;-0.862;2023-04-10T09:12:44;100267.13;;;18.16;46.25
72359;BME280;60317;48.880;-0.862;2023-04-10T09:15:11;100264.47;;;18.16;45.96
72359;BME280;60317;48.880;-0.862;2023-04-10T09:17:37;100267.13;;;18.16;46.22
72359;BME280;60317;48.880;-0.862;2023-04-10T09:20:19;100263.63;;;18.15;46.48
72359;BME280;60317;48.880;-0.862;2023-04-10T09:22:46;100265.31;;;18.16;46.13
72359;BME280;60317;48.880;-0.862;2023-04-10T09:25:28;100270.75;;;18.15;46.46
72359;BME280;60317;48.880;-0.862;2023-04-10T09:27:59;100271.63;;;18.15;46.55
72359;BME280;60317;48.880;-0.862;2023-04-10T09:30:33;100280.63;;;18.14;46.43
72359;BME280;60317;48.880;-0.862;2023-04-10T09:33:00;100275.03;;;18.17;46.63
72359;BME280;60317;48.880;-0.862;2023-04-10T09:35:37;100272.34;;;18.17;46.56
72359;BME280;60317;48.880;-0.862;2023-04-10T09:38:13;100274.19;;;18.17;46.48
72359;BME280;60317;48.880;-0.862;2023-04-10T09:40:41;100267.97;;;18.16;46.70
72359;BME280;60317;48.880;-0.862;2023-04-10T09:43:17;100267.00;;;18.17;46.65
72359;BME280;60317;48.880;-0.862;2023-04-10T09:45:46;100264.31;;;18.17;46.81
72359;BME280;60317;48.880;-0.862;2023-04-10T09:48:12;100271.50;;;18.17;46.97
72359;BME280;60317;48.880;-0.862;2023-04-10T09:50:39;100261.78;;;18.16;46.90
72359;BME280;60317;48.880;-0.862;2023-04-10T09:53:07;100253.63;;;18.17;46.85
72359;BME280;60317;48.880;-0.862;2023-04-10T09:55:34;100258.13;;;18.17;46.79
72359;BME280;60317;48.880;-0.862;2023-04-10T09:58:04;100257.28;;;18.16;47.10
72359;BME280;60317;48.880;-0.862;2023-04-10T10:00:34;100259.97;;;18.16;47.09
72359;BME280;60317;48.880;-0.862;2023-04-10T10:03:06;100253.63;;;18.17;47.15
72359;BME280;60317;48.880;-0.862;2023-04-10T10:05:35;100257.16;;;18.18;47.29
72359;BME280;60317;48.880;-0.862;2023-04-10T10:08:01;100250.72;;;18.20;46.75
72359;BME280;60317;48.880;-0.862;2023-04-10T10:10:28;100246.59;;;18.16;47.17
72359;BME280;60317;48.880;-0.862;2023-04-10T10:12:57;100244.91;;;18.15;47.21
72359;BME280;60317;48.880;-0.862;2023-04-10T10:15:32;100251.78;;;18.18;47.35
72359;BME280;60317;48.880;-0.862;2023-04-10T10:18:03;100254.47;;;18.18;47.23
72359;BME280;60317;48.880;-0.862;2023-04-10T10:20:33;100243.91;;;18.16;47.41
72359;BME280;60317;48.880;-0.862;2023-04-10T10:23:02;100244.75;;;18.17;47.46
72359;BME280;60317;48.880;-0.862;2023-04-10T10:25:30;100250.09;;;18.17;47.49
72359;BME280;60317;48.880;-0.862;2023-04-10T10:27:57;100249.25;;;18.16;47.50
72359;BME280;60317;48.880;-0.862;2023-04-10T10:30:26;100244.75;;;18.17;47.37
72359;BME280;60317;48.880;-0.862;2023-04-10T10:32:57;100238.56;;;18.16;47.39
72359;BME280;60317;48.880;-0.862;2023-04-10T10:35:25;100235.75;;;18.18;47.78
72359;BME280;60317;48.880;-0.862;2023-04-10T10:37:55;100228.72;;;18.17;47.90
72359;BME280;60317;48.880;-0.862;2023-04-10T10:40:27;100229.69;;;18.16;47.62
72359;BME280;60317;48.880;-0.862;2023-04-10T10:42:56;100227.88;;;18.16;47.45
72359;BME280;60317;48.880;-0.862;2023-04-10T10:45:32;100233.06;;;18.18;47.65
72359;BME280;60317;48.880;-0.862;2023-04-10T10:47:59;100231.28;;;18.18;47.64
72359;BME280;60317;48.880;-0.862;2023-04-10T10:50:49;100227.88;;;18.16;47.77
72359;BME280;60317;48.880;-0.862;2023-04-10T10:53:30;100224.44;;;18.14;47.91
72359;BME280;60317;48.880;-0.862;2023-04-10T10:55:57;100213.50;;;18.17;47.90
72359;BME280;60317;48.880;-0.862;2023-04-10T10:58:45;100217.91;;;18.18;47.82
72359;BME280;60317;48.880;-0.862;2023-04-10T11:01:13;100211.69;;;18.18;47.61
72359;BME280;60317;48.880;-0.862;2023-04-10T11:03:40;100216.06;;;18.19;47.81
72359;BME280;60317;48.880;-0.862;2023-04-10T11:06:07;100217.03;;;18.18;47.91
72359;BME280;60317;48.880;-0.862;2023-04-10T11:08:39;100207.19;;;18.18;47.99
72359;BME280;60317;48.880;-0.862;2023-04-10T11:11:07;100201.84;;;18.18;47.95
72359;BME280;60317;48.880;-0.862;2023-04-10T11:13:35;100202.81;;;18.17;48.05
72359;BME280;60317;48.880;-0.862;2023-04-10T11:16:03;100201.84;;;18.18;48.17
72359;BME280;60317;48.880;-0.862;2023-04-10T11:21:33;100193.94;;;18.17;48.06
72359;BME280;60317;48.880;-0.862;2023-04-10T11:24:02;100191.16;;;18.18;48.16
72359;BME280;60317;48.880;-0.862;2023-04-10T11:26:38;100196.50;;;18.18;48.13
72359;BME280;60317;48.880;-0.862;2023-04-10T11:29:06;100199.03;;;18.20;48.29
72359;BME280;60317;48.880;-0.862;2023-04-10T11:31:54;100185.66;;;18.20;48.10
72359;BME280;60317;48.880;-0.862;2023-04-10T11:34:21;100194.69;;;18.19;48.23
72359;BME280;60317;48.880;-0.862;2023-04-10T11:36:49;100191.25;;;18.17;48.17
72359;BME280;60317;48.880;-0.862;2023-04-10T11:39:16;100188.34;;;18.20;48.30
72359;BME280;60317;48.880;-0.862;2023-04-10T11:41:44;100181.16;;;18.20;48.10
72359;BME280;60317;48.880;-0.862;2023-04-10T11:44:12;100190.03;;;18.21;48.25
72359;BME280;60317;48.880;-0.862;2023-04-10T11:46:40;100180.31;;;18.20;48.28
72359;BME280;60317;48.880;-0.862;2023-04-10T11:49:08;100177.63;;;18.20;48.14
72359;BME280;60317;48.880;-0.862;2023-04-10T11:51:35;100173.97;;;18.21;48.33
72359;BME280;60317;48.880;-0.862;2023-04-10T11:54:05;100167.06;;;18.18;48.50
72359;BME280;60317;48.880;-0.862;2023-04-10T11:56:32;100171.31;;;18.21;48.39
72359;BME280;60317;48.880;-0.862;2023-04-10T11:58:58;100164.13;;;18.21;48.39
72359;BME280;60317;48.880;-0.862;2023-04-10T12:01:25;100157.22;;;18.19;48.60
72359;BME280;60317;48.880;-0.862;2023-04-10T12:03:51;100157.09;;;18.20;48.49
72359;BME280;60317;48.880;-0.862;2023-04-10T12:06:18;100148.34;;;18.18;48.67
72359;BME280;60317;48.880;-0.862;2023-04-10T12:08:46;100143.72;;;18.20;48.53
72359;BME280;60317;48.880;-0.862;2023-04-10T12:11:16;100143.84;;;18.19;48.75
72359;BME280;60317;48.880;-0.862;2023-04-10T12:13:43;100145.53;;;18.20;48.66
72359;BME280;60317;48.880;-0.862;2023-04-10T12:16:10;100134.84;;;18.20;48.65
72359;BME280;60317;48.880;-0.862;2023-04-10T12:18:37;100145.41;;;18.21;48.82
72359;BME280;60317;48.880;-0.862;2023-04-10T12:21:04;100149.78;;;18.22;48.64
72359;BME280;60317;48.880;-0.862;2023-04-10T12:23:35;100156.25;;;18.20;48.72
72359;BME280;60317;48.880;-0.862;2023-04-10T12:26:07;100171.06;;;18.24;48.91
72359;BME280;60317;48.880;-0.862;2023-04-10T12:28:35;100182.34;;;18.27;48.93
72359;BME280;60317;48.880;-0.862;2023-04-10T12:31:02;100203.50;;;18.30;49.07
72359;BME280;60317;48.880;-0.862;2023-04-10T12:33:29;100220.91;;;18.36;49.81
72359;BME280;60317;48.880;-0.862;2023-04-10T12:35:56;100222.84;;;18.34;49.36
72359;BME280;60317;48.880;-0.862;2023-04-10T12:38:34;100220.31;;;18.32;50.23
72359;BME280;60317;48.880;-0.862;2023-04-10T12:41:00;100216.25;;;18.38;49.82
72359;BME280;60317;48.880;-0.862;2023-04-10T12:43:32;100228.19;;;18.34;49.86
72359;BME280;60317;48.880;-0.862;2023-04-10T12:46:00;100227.00;;;18.27;50.10
72359;BME280;60317;48.880;-0.862;2023-04-10T12:48:27;100230.16;;;18.21;50.08